sensor_id;sensor_type;location;lat;lon;timestamp;pressure;altitude;pressure_sealevel;temperature;humidity
43281;BME280;62175;49.416;8.690;2023-08-20T00:23:30;100790.32;;;25.79;74.62
43281;BME280;62175;49.416;8.690;2023-08-20T00:26:07;100787.94;;;25.19;72.58
43281;BME280;62175;49.416;8.690;2023-08-20T00:29:38;100787.53;;;25.62;72.21
43281;BME280;62175;49.416;8.690;2023-08-20T00:43:48;100804.89;;;25.81;74.24
43281;BME280;62175;49.416;8.690;2023-08-20T00:46:17;100803.80;;;24.20;72.60
43281;BME280;62175;49.416;8.690;2023-08-20T00:48:51;100805.80;;;25.82;70.36
43281;BME280;62175;49.416;8.690;2023-08-20T00:51:27;100803.72;;;26.05;70.27
43281;BME280;62175;49.416;8.690;2023-08-20T00:54:02;100803.32;;;25.67;70.57
43281;BME280;62175;49.416;8.690;2023-08-20T00:56:36;100803.44;;;25.72;70.23
43281;BME280;62175;49.416;8.690;2023-08-20T00:59:08;100804.80;;;25.35;70.91
43281;BME280;62175;49.416;8.690;2023-08-20T01:02:46;100806.22;;;25.65;70.40
43281;BME280;62175;49.416;8.690;2023-08-20T01:05:58;100804.56;;;25.91;70.67
43281;BME280;62175;49.416;8.690;2023-08-20T01:08:41;100805.52;;;26.14;70.72
43281;BME280;62175;49.416;8.690;2023-08-20T01:11:36;100803.32;;;25.86;70.59
43281;BME280;62175;49.416;8.690;2023-08-20T01:14:23;100801.13;;;25.67;70.59
43281;BME280;62175;49.416;8.690;2023-08-20T01:16:52;100801.63;;;25.60;70.49
43281;BME280;62175;49.416;8.690;2023-08-20T01:19:37;100802.75;;;25.88;70.57
43281;BME280;62175;49.416;8.690;2023-08-20T01:22:21;100804.60;;;25.58;70.62
43281;BME280;62175;49.416;8.690;2023-08-20T01:25:08;100804.32;;;25.86;70.43
43281;BME280;62175;49.416;8.690;2023-08-20T01:27:50;100801.78;;;25.96;70.51
43281;BME280;62175;49.416;8.690;2023-08-20T01:30:23;100800.35;;;25.62;70.28
43281;BME280;62175;49.416;8.690;2023-08-20T01:35:08;100798.93;;;26.27;70.55
43281;BME280;62175;49.416;8.690;2023-08-20T01:49:17;100795.71;;;25.64;72.67
43281;BME280;62175;49.416;8.690;2023-08-20T01:51:49;100787.78;;;25.37;70.97
43281;BME280;62175;49.416;8.690;2023-08-20T01:54:18;100785.39;;;25.65;71.21
43281;BME280;62175;49.416;8.690;2023-08-20T01:56:52;100782.61;;;25.55;69.87
43281;BME280;62175;49.416;8.690;2023-08-20T01:59:23;100780.92;;;25.77;70.33
43281;BME280;62175;49.416;8.690;2023-08-20T02:01:53;100775.88;;;25.71;70.20
43281;BME280;62175;49.416;8.690;2023-08-20T02:04:27;100773.24;;;25.70;70.52
43281;BME280;62175;49.416;8.690;2023-08-20T02:07:08;100768.62;;;25.91;70.88
43281;BME280;62175;49.416;8.690;2023-08-20T02:10:00;100768.70;;;25.65;70.54
43281;BME280;62175;49.416;8.690;2023-08-20T02:12:53;100769.21;;;25.29;70.46
43281;BME280;62175;49.416;8.690;2023-08-20T02:15:25;100768.95;;;25.39;70.92
43281;BME280;62175;49.416;8.690;2023-08-20T02:17:58;100770.70;;;25.69;70.28
43281;BME280;62175;49.416;8.690;2023-08-20T02:21:07;100773.06;;;25.43;69.94
43281;BME280;62175;49.416;8.690;2023-08-20T02:24:34;100776.14;;;25.74;70.58
43281;BME280;62175;49.416;8.690;2023-08-20T03:01:20;100806.43;;;25.70;72.44
43281;BME280;62175;49.416;8.690;2023-08-20T03:03:54;100806.90;;;25.04;71.53
43281;BME280;62175;49.416;8.690;2023-08-20T03:06:28;100807.90;;;25.39;71.60
43281;BME280;62175;49.416;8.690;2023-08-20T03:09:08;100805.52;;;25.63;70.77
43281;BME280;62175;49.416;8.690;2023-08-20T03:28:38;100809.20;;;25.63;73.55
43281;BME280;62175;49.416;8.690;2023-08-20T04:14:01;100819.45;;;24.99;74.84
43281;BME280;62175;49.416;8.690;2023-08-20T04:41:29;100815.76;;;25.06;74.27
43281;BME280;62175;49.416;8.690;2023-08-20T05:10:36;100858.17;;;25.44;73.53
43281;BME280;62175;49.416;8.690;2023-08-20T05:13:06;100859.90;;;25.07;72.35
43281;BME280;62175;49.416;8.690;2023-08-20T05:15:37;100861.01;;;25.17;72.15
43281;BME280;62175;49.416;8.690;2023-08-20T05:18:12;100861.51;;;25.24;71.44
43281;BME280;62175;49.416;8.690;2023-08-20T05:21:02;100863.22;;;25.33;70.89
43281;BME280;62175;49.416;8.690;2023-08-20T05:23:35;100865.67;;;25.34;70.80
43281;BME280;62175;49.416;8.690;2023-08-20T05:26:07;100866.18;;;25.15;71.69
43281;BME280;62175;49.416;8.690;2023-08-20T05:28:42;100868.97;;;25.41;70.32
43281;BME280;62175;49.416;8.690;2023-08-20T05:31:13;100874.50;;;25.39;70.40
43281;BME280;62175;49.416;8.690;2023-08-20T05:33:45;100875.97;;;25.16;70.13
43281;BME280;62175;49.416;8.690;2023-08-20T05:36:14;100875.69;;;24.85;70.48
43281;BME280;62175;49.416;8.690;2023-08-20T05:38:43;100875.07;;;25.14;69.41
43281;BME280;62175;49.416;8.690;2023-08-20T05:41:37;100878.32;;;25.24;71.08
43281;BME280;62175;49.416;8.690;2023-08-20T05:44:17;100881.36;;;25.11;70.85
43281;BME280;62175;49.416;8.690;2023-08-20T06:02:14;100886.25;;;25.53;72.29
43281;BME280;62175;49.416;8.690;2023-08-20T06:04:54;100891.36;;;24.91;71.03
43281;BME280;62175;49.416;8.690;2023-08-20T06:07:26;100883.35;;;25.20;70.14
43281;BME280;62175;49.416;8.690;2023-08-20T06:10:03;100882.16;;;25.08;69.43
43281;BME280;62175;49.416;8.690;2023-08-20T06:12:34;100886.68;;;25.36;69.89
43281;BME280;62175;49.416;8.690;2023-08-20T06:15:13;100888.32;;;25.47;69.20
43281;BME280;62175;49.416;8.690;2023-08-20T06:18:12;100886.69;;;25.79;69.49
43281;BME280;62175;49.416;8.690;2023-08-20T06:21:04;100886.12;;;25.32;69.31
43281;BME280;62175;49.416;8.690;2023-08-20T06:23:46;100884.28;;;25.67;69.28
43281;BME280;62175;49.416;8.690;2023-08-20T06:26:20;100886.92;;;25.45;69.44
43281;BME280;62175;49.416;8.690;2023-08-20T06:28:57;100887.00;;;25.07;69.49
43281;BME280;62175;49.416;8.690;2023-08-20T06:31:31;100892.17;;;25.62;69.84
43281;BME280;62175;49.416;8.690;2023-08-20T06:34:22;100895.81;;;25.23;68.98
43281;BME280;62175;49.416;8.690;2023-08-20T06:36:55;100897.09;;;25.71;69.10
43281;BME280;62175;49.416;8.690;2023-08-20T06:39:27;100898.42;;;25.57;68.90
43281;BME280;62175;49.416;8.690;2023-08-20T06:42:11;100905.47;;;25.71;68.49
43281;BME280;62175;49.416;8.690;2023-08-20T06:44:54;100906.89;;;25.87;68.75
43281;BME280;62175;49.416;8.690;2023-08-20T06:47:31;100907.67;;;25.99;69.37
43281;BME280;62175;49.416;8.690;2023-08-20T06:51:20;100912.21;;;25.84;69.44
43281;BME280;62175;49.416;8.690;2023-08-20T06:53:56;100916.69;;;25.51;68.95
43281;BME280;62175;49.416;8.690;2023-08-20T06:56:24;100917.99;;;25.43;68.98
43281;BME280;62175;49.416;8.690;2023-08-20T06:59:19;100918.46;;;25.80;69.56
43281;BME280;62175;49.416;8.690;2023-08-20T07:01:51;100911.76;;;25.61;69.76
43281;BME280;62175;49.416;8.690;2023-08-20T07:04:29;100906.92;;;25.66;69.52
43281;BME280;62175;49.416;8.690;2023-08-20T07:07:34;100906.91;;;25.54;69.55
43281;BME280;62175;49.416;8.690;2023-08-20T07:10:06;100908.03;;;25.51;69.73
43281;BME280;62175;49.416;8.690;2023-08-20T07:12:35;100911.11;;;25.55;69.56
43281;BME280;62175;49.416;8.690;2023-08-20T07:15:25;100910.64;;;25.65;69.25
43281;BME280;62175;49.416;8.690;2023-08-20T07:17:53;100913.12;;;25.64;69.14
43281;BME280;62175;49.416;8.690;2023-08-20T07:20:28;100914.86;;;25.72;69.87
43281;BME280;62175;49.416;8.690;2023-08-20T07:23:08;100918.46;;;25.68;69.67
43281;BME280;62175;49.416;8.690;2023-08-20T07:26:03;100920.14;;;25.49;69.22
43281;BME280;62175;49.416;8.690;2023-08-20T08:03:50;100941.92;;;25.72;72.39
43281;BME280;62175;49.416;8.690;2023-08-20T08:46:51;100944.82;;;25.79;73.06
43281;BME280;62175;49.416;8.690;2023-08-20T22:03:00;100932.89;;;26.04;63.05
43281;BME280;62175;49.416;8.690;2023-08-20T22:05:29;100932.28;;;26.33;61.55
43281;BME280;62175;49.416;8.690;2023-08-20T22:08:00;100935.46;;;26.53;62.06
43281;BME280;62175;49.416;8.690;2023-08-20T22:10:31;100936.28;;;26.39;61.31
